Time;durP1;ratioP1;P1;durP2;ratioP2;P2;SDS_P1;SDS_P2;PMS_P1;PMS_P2;Temp;Humidity;BMP_temperature;BMP_pressure;BME280_temperature;BME280_humidity;BME280_pressure;Samples;Min_cycle;Max_cycle;Signal;HPM_P1;HPM_P2
2021/08/31 00:00:47;;;;;;;34.97;21.88;;;;;;;19.05;78.76;99768.28;5031598;28;20072;-77
2021/08/31 00:03:13;;;;;;;35.03;22.42;;;;;;;18.93;78.48;99757.28;5014119;28;20508;-77
2021/08/31 00:05:39;;;;;;;30.17;20.48;;;;;;;18.87;78.98;99740.91;5013802;28;20419;-76
2021/08/31 00:08:04;;;;;;;31.88;21.35;;;;;;;18.84;78.56;99744.53;5013617;28;20045;-77
2021/08/31 00:10:30;;;;;;;35.30;20.52;;;;;;;18.93;78.75;99753.81;5031521;28;20121;-76
2021/08/31 00:12:56;;;;;;;31.45;22.58;;;;;;;18.96;78.69;99761.63;5013360;28;20047;-77
2021/08/31 00:15:21;;;;;;;30.05;21.02;;;;;;;18.93;78.86;99775.75;5031089;28;20041;-76
2021/08/31 00:17:47;;;;;;;33.50;22.10;;;;;;;18.84;78.57;99770.91;4996377;28;20068;-76
2021/08/31 00:20:13;;;;;;;36.80;22.48;;;;;;;18.94;79.04;99787.16;5030997;28;20046;-77
2021/08/31 00:22:38;;;;;;;33.80;21.88;;;;;;;18.89;79.09;99779.44;5013194;28;20041;-77
2021/08/31 00:25:06;;;;;;;31.20;21.10;;;;;;;18.89;79.02;99768.91;5013316;28;20049;-77
2021/08/31 00:27:32;;;;;;;30.58;20.90;;;;;;;18.99;78.96;99787.00;5030887;28;20049;-77
2021/08/31 00:30:04;;;;;;;32.88;22.20;;;;;;;18.91;78.84;99774.13;4998225;28;20041;-78
2021/08/31 00:32:30;;;;;;;32.05;21.08;;;;;;;19.02;78.76;99790.34;4996824;28;20393;-77
2021/08/31 00:34:55;;;;;;;29.55;21.10;;;;;;;19.00;78.93;99793.97;5013254;28;20095;-78
2021/08/31 00:37:31;;;;;;;29.92;19.45;;;;;;;18.93;78.71;99773.13;5014842;28;20084;-77
2021/08/31 00:39:57;;;;;;;33.75;21.33;;;;;;;19.02;78.86;99786.84;5029342;28;20057;-77
2021/08/31 00:42:23;;;;;;;30.17;20.67;;;;;;;18.82;78.56;99751.66;5013535;28;20123;-77
2021/08/31 00:44:49;;;;;;;29.00;20.10;;;;;;;18.91;78.83;99771.47;5014330;28;20539;-77
2021/08/31 00:47:15;;;;;;;30.10;20.63;;;;;;;18.95;78.56;99781.84;5013726;28;20045;-78
2021/08/31 00:49:41;;;;;;;30.75;20.85;;;;;;;18.94;78.53;99777.47;5014162;28;20061;-76
2021/08/31 00:52:08;;;;;;;31.23;18.98;;;;;;;18.93;78.63;99772.28;5013095;28;20076;-78
2021/08/31 00:54:33;;;;;;;34.55;20.63;;;;;;;18.98;78.67;99780.00;5030394;28;20041;-76
2021/08/31 00:57:01;;;;;;;29.60;19.80;;;;;;;18.86;78.87;99761.16;4971335;28;1229130;-78
2021/08/31 00:59:27;;;;;;;31.55;20.15;;;;;;;18.83;78.81;99756.00;5015244;28;20124;-76
2021/08/31 01:01:54;;;;;;;29.52;20.67;;;;;;;18.96;78.87;99780.94;5029700;28;20139;-78
2021/08/31 01:04:25;;;;;;;28.23;20.00;;;;;;;18.89;78.81;99774.16;5017825;28;20056;-77
2021/08/31 01:06:53;;;;;;;23.73;18.48;;;;;;;19.01;78.74;99785.97;5016357;28;20048;-77
2021/08/31 01:09:20;;;;;;;25.67;18.65;;;;;;;19.01;78.81;99790.41;5013648;28;20037;-76
2021/08/31 01:11:48;;;;;;;26.08;19.48;;;;;;;18.89;78.26;99760.97;5031489;28;20519;-76
2021/08/31 01:14:14;;;;;;;28.45;19.20;;;;;;;18.95;78.71;99768.66;4997616;28;20150;-77
2021/08/31 01:16:39;;;;;;;31.40;19.33;;;;;;;18.98;78.45;99774.72;5015286;28;20117;-75
2021/08/31 01:19:06;;;;;;;25.55;17.92;;;;;;;19.01;78.54;99785.97;5014454;28;20115;-76
2021/08/31 01:21:32;;;;;;;27.92;19.10;;;;;;;18.99;78.41;99777.28;5032375;28;20037;-77
2021/08/31 01:23:59;;;;;;;30.20;19.80;;;;;;;18.95;78.21;99779.22;5032071;28;20127;-76
2021/08/31 01:26:27;;;;;;;29.20;19.65;;;;;;;18.94;77.91;99785.38;5030705;28;20044;-76
2021/08/31 01:28:53;;;;;;;26.55;17.42;;;;;;;18.93;78.22;99786.28;5013934;28;20099;-77
2021/08/31 01:31:18;;;;;;;27.38;18.92;;;;;;;18.86;78.33;99774.31;5030400;28;20041;-76
2021/08/31 01:33:45;;;;;;;25.40;17.45;;;;;;;18.90;78.01;99770.59;5031084;28;20045;-76
2021/08/31 01:36:17;;;;;;;28.42;18.55;;;;;;;18.97;77.95;99779.16;5030890;28;20079;-77
2021/08/31 01:38:43;;;;;;;28.83;18.90;;;;;;;18.73;78.03;99752.03;5035540;28;20045;-78
2021/08/31 01:41:09;;;;;;;26.50;18.50;;;;;;;18.95;78.08;99789.75;5034935;28;20037;-78
2021/08/31 01:43:35;;;;;;;23.95;17.30;;;;;;;18.87;77.99;99776.00;5017394;28;20716;-77
2021/08/31 01:46:01;;;;;;;25.95;18.52;;;;;;;18.91;77.88;99774.97;5017264;28;20073;-75
2021/08/31 01:48:26;;;;;;;30.55;19.15;;;;;;;18.93;78.02;99769.63;5034932;28;20056;-77
2021/08/31 01:50:52;;;;;;;31.23;18.52;;;;;;;18.97;77.84;99789.72;5017262;28;20153;-77
2021/08/31 01:53:18;;;;;;;30.98;19.48;;;;;;;18.90;77.37;99782.94;5021640;28;20067;-75
2021/08/31 01:55:43;;;;;;;28.17;19.83;;;;;;;18.78;77.65;99773.78;5057212;28;20033;-77
2021/08/31 01:58:09;;;;;;;29.67;17.92;;;;;;;18.80;77.89;99769.31;5039441;28;20060;-77
2021/08/31 02:00:36;;;;;;;28.38;17.80;;;;;;;18.88;77.46;99783.00;5035169;28;20073;-79
2021/08/31 02:03:02;;;;;;;26.58;18.30;;;;;;;18.76;77.47;99768.56;5035198;28;20635;-77
2021/08/31 02:05:27;;;;;;;27.55;19.63;;;;;;;18.77;77.28;99779.97;4997893;28;20065;-76
2021/08/31 02:07:53;;;;;;;26.23;19.25;;;;;;;18.74;77.58;99785.38;4997045;28;20065;-76
2021/08/31 02:10:19;;;;;;;30.73;20.85;;;;;;;18.74;77.42;99793.28;4997114;28;20038;-77
2021/08/31 02:12:45;;;;;;;28.83;19.42;;;;;;;18.74;77.59;99790.66;4997270;28;20042;-77
2021/08/31 02:15:11;;;;;;;26.52;18.92;;;;;;;18.74;77.58;99791.53;4981132;28;20044;-77
2021/08/31 02:17:37;;;;;;;29.88;19.25;;;;;;;18.77;77.47;99788.72;5014610;28;20041;-76
2021/08/31 02:20:05;;;;;;;28.38;18.70;;;;;;;18.77;77.54;99788.72;4997876;28;20074;-77
2021/08/31 02:22:30;;;;;;;26.67;18.20;;;;;;;18.79;77.42;99789.53;4997305;28;20042;-77
2021/08/31 02:24:56;;;;;;;32.42;21.02;;;;;;;18.75;77.46;99784.47;5014736;28;20414;-76
2021/08/31 02:27:22;;;;;;;32.50;21.90;;;;;;;18.75;77.35;99784.47;5014443;28;20390;-76
2021/08/31 02:29:47;;;;;;;32.33;22.60;;;;;;;18.67;77.08;99785.63;5014023;28;20598;-77
2021/08/31 02:32:13;;;;;;;35.97;21.50;;;;;;;18.62;77.31;99774.47;5032515;28;20425;-78
2021/08/31 02:34:39;;;;;;;35.63;22.77;;;;;;;18.63;77.18;99778.81;5033982;28;20037;-76
2021/08/31 02:37:06;;;;;;;29.20;20.63;;;;;;;18.74;77.07;99794.16;5016969;28;20045;-77
2021/08/31 02:39:32;;;;;;;30.95;20.25;;;;;;;18.77;77.23;99793.16;5016720;28;20030;-78
2021/08/31 02:41:57;;;;;;;28.52;19.70;;;;;;;18.74;77.23;99785.38;5016991;28;20208;-77
2021/08/31 02:44:23;;;;;;;30.52;21.23;;;;;;;18.78;76.81;99792.25;5034289;28;20069;-75
2021/08/31 02:46:49;;;;;;;35.13;22.75;;;;;;;18.74;77.16;99796.81;5017275;28;20045;-78
2021/08/31 02:49:15;;;;;;;30.38;22.05;;;;;;;18.70;77.12;99781.16;5033732;28;20571;-75
2021/08/31 02:51:40;;;;;;;31.60;22.13;;;;;;;18.74;76.86;99793.28;5016440;28;20044;-76
2021/08/31 02:54:06;;;;;;;29.50;21.27;;;;;;;18.62;76.94;99781.50;5034380;28;20084;-77
2021/08/31 02:56:32;;;;;;;34.25;24.05;;;;;;;18.70;76.85;99800.47;5000574;28;20049;-77
2021/08/31 02:58:57;;;;;;;35.25;24.00;;;;;;;18.74;76.87;99809.09;5013247;28;20034;-77
2021/08/31 03:03:55;;;;;;;31.23;21.38;;;;;;;18.66;76.96;99789.19;5034932;28;20037;-76
2021/08/31 03:06:21;;;;;;;33.17;23.08;;;;;;;18.65;76.47;99792.75;5035673;28;20051;-76
2021/08/31 03:08:47;;;;;;;31.83;22.20;;;;;;;18.55;76.36;99785.31;5034315;28;20130;-77
2021/08/31 03:11:13;;;;;;;38.38;23.17;;;;;;;18.60;76.98;99802.66;5016975;28;20120;-78
2021/08/31 03:13:38;;;;;;;31.48;22.98;;;;;;;18.59;76.37;99816.75;5034758;28;20417;-77
2021/08/31 03:16:04;;;;;;;32.03;20.60;;;;;;;18.62;76.97;99813.13;5033973;28;20041;-79
2021/08/31 03:18:29;;;;;;;29.10;21.20;;;;;;;18.51;76.64;99781.94;5046618;28;20057;-77
2021/08/31 03:20:55;;;;;;;30.77;21.67;;;;;;;18.48;76.60;99779.44;5022980;28;20041;-77
2021/08/31 03:23:21;;;;;;;34.33;22.15;;;;;;;18.44;76.81;99776.09;5020939;28;20087;-76
2021/08/31 03:25:46;;;;;;;35.30;21.40;;;;;;;18.55;76.79;99796.72;5037948;28;20104;-76
2021/08/31 03:28:13;;;;;;;29.20;21.75;;;;;;;18.59;76.97;99798.31;5040852;28;20041;-77
2021/08/31 03:30:39;;;;;;;31.70;20.88;;;;;;;18.61;76.80;99806.13;5016428;28;20037;-77
2021/08/31 03:33:05;;;;;;;28.65;20.40;;;;;;;18.62;76.71;99807.84;5012569;28;20064;-76
2021/08/31 03:35:31;;;;;;;33.17;21.33;;;;;;;18.72;76.82;99816.22;5001841;28;20026;-79
2021/08/31 03:37:56;;;;;;;26.80;19.42;;;;;;;18.73;76.53;99812.66;5018946;28;20021;-76
2021/08/31 03:40:22;;;;;;;27.52;18.70;;;;;;;18.73;76.48;99816.16;5014244;28;20018;-76
2021/08/31 03:42:48;;;;;;;28.13;17.70;;;;;;;18.63;76.47;99799.91;5032882;28;20042;-78
2021/08/31 03:45:15;;;;;;;25.52;18.05;;;;;;;18.71;76.23;99817.13;5035152;28;20049;-77
2021/08/31 03:47:41;;;;;;;27.35;17.77;;;;;;;18.65;76.37;99797.19;5016916;28;20049;-76
2021/08/31 03:50:07;;;;;;;24.63;17.25;;;;;;;18.71;76.37;99801.31;5032019;28;20041;-76
2021/08/31 03:52:33;;;;;;;24.35;17.90;;;;;;;18.53;76.23;99777.47;5016025;28;20046;-77
2021/08/31 03:55:03;;;;;;;23.15;17.10;;;;;;;18.60;76.57;99785.97;4981573;28;20038;-76
2021/08/31 03:57:29;;;;;;;23.73;16.80;;;;;;;18.58;76.40;99769.38;4981170;28;20053;-77
2021/08/31 03:59:54;;;;;;;26.15;17.65;;;;;;;18.53;76.17;99756.41;5037248;28;20024;-79
2021/08/31 04:02:21;;;;;;;25.13;16.67;;;;;;;18.60;76.34;99757.84;5034361;28;20048;-77
2021/08/31 04:04:50;;;;;;;27.75;17.20;;;;;;;18.65;75.86;99766.41;5015073;28;20033;-77
2021/08/31 04:07:17;;;;;;;27.15;17.83;;;;;;;18.73;76.27;99781.03;5029896;28;20057;-76
2021/08/31 04:09:46;;;;;;;28.20;17.92;;;;;;;18.89;76.10;99800.53;5015495;28;20036;-77
2021/08/31 04:12:14;;;;;;;24.08;17.95;;;;;;;19.00;75.69;99797.44;5032385;28;20037;-77
2021/08/31 04:14:43;;;;;;;24.27;17.90;;;;;;;19.02;75.55;99797.41;4998969;28;20041;-77
2021/08/31 04:17:20;;;;;;;26.88;17.58;;;;;;;19.03;75.69;99788.56;5015209;28;20576;-75
2021/08/31 04:19:48;;;;;;;23.95;17.70;;;;;;;19.04;75.81;99787.66;5032757;28;20370;-76
2021/08/31 04:22:25;;;;;;;23.17;16.65;;;;;;;19.04;75.25;99783.22;5015200;28;20037;-78
2021/08/31 04:24:51;;;;;;;26.25;17.55;;;;;;;19.00;75.05;99760.53;5014792;28;20266;-76
2021/08/31 04:27:17;;;;;;;22.70;16.92;;;;;;;19.16;74.90;99767.78;5014884;28;20052;-77
2021/08/31 04:29:43;;;;;;;27.08;18.70;;;;;;;19.17;74.33;99772.97;5032695;28;20493;-76
2021/08/31 04:32:09;;;;;;;26.75;18.25;;;;;;;18.87;73.90;99736.47;5015604;28;20045;-75
2021/08/31 04:34:40;;;;;;;24.90;18.50;;;;;;;19.03;74.59;99762.22;4999186;28;20041;-76
2021/08/31 04:37:15;;;;;;;29.10;18.67;;;;;;;18.77;73.99;99736.03;5031790;28;20509;-77
2021/08/31 04:39:40;;;;;;;24.23;17.80;;;;;;;18.78;74.31;99748.28;5013919;28;20046;-76
2021/08/31 04:42:06;;;;;;;21.42;16.27;;;;;;;18.90;74.69;99748.69;5014519;28;20053;-77
2021/08/31 04:44:33;;;;;;;24.73;18.17;;;;;;;19.06;74.52;99769.97;5001024;28;20037;-76
2021/08/31 04:46:59;;;;;;;22.98;16.83;;;;;;;18.92;74.39;99741.56;5015720;28;20045;-76
2021/08/31 04:49:25;;;;;;;25.08;17.10;;;;;;;19.10;74.36;99764.50;5014349;28;20097;-76
2021/08/31 04:51:50;;;;;;;23.75;16.35;;;;;;;19.16;74.47;99755.44;5013618;28;20052;-76
2021/08/31 04:54:16;;;;;;;26.67;17.48;;;;;;;19.20;73.91;99743.84;4997831;28;20048;-77
2021/08/31 04:56:42;;;;;;;22.65;16.15;;;;;;;19.36;73.72;99756.31;5014568;28;20140;-76
2021/08/31 04:59:08;;;;;;;23.27;16.33;;;;;;;19.11;73.71;99712.59;5014259;28;20421;-76
2021/08/31 05:01:34;;;;;;;23.35;16.48;;;;;;;19.41;73.45;99751.69;5010137;28;20077;-77
2021/08/31 05:04:00;;;;;;;21.00;15.63;;;;;;;19.38;73.37;99746.53;5007129;28;20090;-76
2021/08/31 05:06:37;;;;;;;24.30;16.70;;;;;;;19.36;73.46;99737.84;5012163;28;20070;-77
2021/08/31 05:09:03;;;;;;;28.05;16.08;;;;;;;19.37;73.12;99744.84;4994018;28;20052;-77
2021/08/31 05:11:32;;;;;;;19.70;15.43;;;;;;;19.37;72.77;99747.47;5012219;28;20128;-76
2021/08/31 05:14:00;;;;;;;21.65;16.10;;;;;;;19.38;73.17;99739.50;5012003;28;20065;-77
2021/08/31 05:17:25;;;;;;;23.25;15.90;;;;;;;18.82;72.83;99651.50;5011810;28;20115;-77
2021/08/31 05:20:28;;;;;;;20.80;14.85;;;;;;;19.09;72.88;99703.91;4994546;28;20421;-77
2021/08/31 05:23:17;;;;;;;22.60;15.65;;;;;;;18.75;72.55;99628.97;4985045;28;20073;-77
2021/08/31 05:26:03;;;;;;;19.45;15.13;;;;;;;19.12;72.61;99658.94;5012920;28;20100;-78
2021/08/31 05:28:49;;;;;;;18.95;14.63;;;;;;;19.81;72.37;99749.78;4999777;28;20041;-75
2021/08/31 05:31:15;;;;;;;22.02;15.52;;;;;;;19.86;71.95;99737.22;5003512;28;20618;-79
2021/08/31 05:33:41;;;;;;;19.58;14.50;;;;;;;19.75;71.91;99725.47;5010938;28;20069;-78
2021/08/31 05:36:06;;;;;;;21.67;15.70;;;;;;;19.91;71.54;99752.03;5027485;28;20528;-77
2021/08/31 05:38:32;;;;;;;22.20;15.73;;;;;;;19.74;71.23;99729.06;5013694;28;20551;-77
2021/08/31 05:40:58;;;;;;;19.88;14.90;;;;;;;19.66;71.41;99732.06;5009952;28;20535;-77
2021/08/31 05:43:24;;;;;;;23.80;14.95;;;;;;;19.83;71.44;99747.94;5010421;28;20541;-75
2021/08/31 05:45:57;;;;;;;22.02;14.65;;;;;;;19.88;71.73;99729.25;5015593;28;20125;-78
2021/08/31 05:48:24;;;;;;;22.48;15.60;;;;;;;20.02;71.10;99736.50;4995281;28;20038;-77
2021/08/31 05:50:53;;;;;;;22.02;15.05;;;;;;;19.69;70.61;99669.41;4995850;28;20048;-78
2021/08/31 05:53:24;;;;;;;20.55;15.65;;;;;;;19.78;70.71;99681.31;5012336;28;20597;-78
2021/08/31 05:55:51;;;;;;;17.98;13.57;;;;;;;19.97;70.19;99715.63;4978668;28;20108;-79
2021/08/31 05:58:18;;;;;;;20.42;14.18;;;;;;;19.74;69.81;99703.53;4994868;28;20050;-80
2021/08/31 06:00:43;;;;;;;19.70;14.27;;;;;;;19.64;69.84;99724.19;5032217;28;20094;-78
2021/08/31 06:03:09;;;;;;;20.92;15.70;;;;;;;19.60;70.61;99742.91;5016704;28;20076;-80
2021/08/31 06:05:37;;;;;;;22.25;15.05;;;;;;;19.31;70.95;99719.59;5025998;28;20517;-76
2021/08/31 06:08:03;;;;;;;21.73;15.52;;;;;;;19.34;71.09;99714.19;4991624;28;20041;-79
2021/08/31 06:10:29;;;;;;;19.92;15.30;;;;;;;19.75;71.53;99736.88;5036418;28;20098;-78
2021/08/31 06:12:56;;;;;;;20.75;14.98;;;;;;;19.93;71.04;99731.69;4998426;28;20047;-77
2021/08/31 06:15:26;;;;;;;21.67;14.80;;;;;;;20.02;70.54;99726.81;4998211;28;20048;-77
2021/08/31 06:18:01;;;;;;;19.33;13.98;;;;;;;19.94;70.75;99699.91;4997522;28;20048;-77
2021/08/31 06:20:36;;;;;;;19.83;13.48;;;;;;;19.96;70.36;99649.69;4997294;28;20429;-77
2021/08/31 06:23:05;;;;;;;20.95;14.43;;;;;;;20.09;69.01;99648.13;5034026;28;20095;-77
2021/08/31 06:25:31;;;;;;;20.25;14.93;;;;;;;20.61;68.55;99730.94;5017037;28;20425;-76
2021/08/31 06:28:00;;;;;;;18.02;14.02;;;;;;;20.85;69.77;99730.63;5016193;28;20053;-77
2021/08/31 06:30:25;;;;;;;25.45;14.75;;;;;;;20.83;67.85;99688.38;5016379;28;20056;-79
2021/08/31 06:33:10;;;;;;;19.10;13.93;;;;;;;20.67;68.63;99653.94;5017391;28;20501;-77
2021/08/31 06:35:42;;;;;;;20.13;14.32;;;;;;;20.89;67.74;99647.53;5027371;28;20041;-76
2021/08/31 06:38:43;;;;;;;19.95;13.68;;;;;;;22.08;68.92;99699.13;4985486;28;20048;-77
2021/08/31 06:41:21;;;;;;;17.85;13.30;;;;;;;22.64;64.23;99724.19;5017780;28;20068;-81
2021/08/31 06:44:26;;;;;;;20.60;13.70;;;;;;;22.37;64.72;99724.88;5018509;28;20044;-78
2021/08/31 06:46:52;;;;;;;19.33;13.63;;;;;;;22.02;64.20;99680.09;5016074;28;20524;-78
2021/08/31 06:49:18;;;;;;;18.85;13.25;;;;;;;22.38;63.74;99706.22;5032889;28;20041;-77
2021/08/31 06:51:44;;;;;;;21.90;14.15;;;;;;;22.79;63.67;99695.88;5027386;28;20049;-77
2021/08/31 06:54:27;;;;;;;17.50;14.25;;;;;;;22.97;62.42;99718.59;5043434;28;20147;-78
2021/08/31 06:56:55;;;;;;;21.40;15.77;;;;;;;22.45;62.11;99709.38;5002509;28;20054;-77
2021/08/31 06:59:22;;;;;;;19.83;13.98;;;;;;;22.73;63.98;99694.47;5026978;28;20668;-78
2021/08/31 07:05:14;;;;;;;20.80;14.02;;;;;;;24.08;61.37;99671.81;4995412;28;20074;-76
2021/08/31 07:07:40;;;;;;;19.88;13.98;;;;;;;24.35;59.96;99706.28;4984033;28;20045;-78
2021/08/31 07:10:08;;;;;;;16.83;13.43;;;;;;;24.30;58.92;99693.31;5032900;28;20095;-77
2021/08/31 07:12:45;;;;;;;16.02;13.05;;;;;;;24.64;58.50;99700.78;5053529;28;20040;-77
2021/08/31 07:15:47;;;;;;;18.20;13.88;;;;;;;24.98;57.71;99681.63;5019661;28;20670;-77
2021/08/31 07:18:21;;;;;;;16.10;12.85;;;;;;;25.44;57.15;99704.13;5055120;28;20062;-76
2021/08/31 07:20:50;;;;;;;15.48;12.70;;;;;;;26.05;55.82;99693.38;5019780;28;20041;-76
2021/08/31 07:23:25;;;;;;;23.10;14.30;;;;;;;26.24;54.50;99671.56;5039003;28;20045;-77
2021/08/31 07:25:57;;;;;;;21.80;12.52;;;;;;;25.40;54.35;99578.31;5008691;28;20095;-77
2021/08/31 07:28:27;;;;;;;16.98;13.10;;;;;;;26.01;53.46;99542.66;5022043;28;20615;-77
2021/08/31 07:31:16;;;;;;;16.95;12.10;;;;;;;27.35;53.09;99605.88;4988650;28;20136;-76
2021/08/31 07:33:51;;;;;;;15.13;11.68;;;;;;;28.92;51.75;99629.28;5000949;28;20140;-77
2021/08/31 07:37:08;;;;;;;16.00;12.65;;;;;;;30.92;47.80;99659.22;5004620;28;20050;-80
2021/08/31 07:39:55;;;;;;;17.52;11.32;;;;;;;32.58;44.33;99588.91;5028807;28;20038;-77
2021/08/31 07:42:52;;;;;;;16.27;10.68;;;;;;;34.59;41.53;99646.41;5020116;28;20413;-74
2021/08/31 07:45:24;;;;;;;;;;;;;;;35.19;38.98;99636.88;5010330;28;20041;-77
2021/08/31 07:48:20;;;;;;;17.02;12.52;;;;;;;35.91;38.74;99596.09;5018379;28;19924;-77
2021/08/31 07:51:25;;;;;;;;;;;;;;;;;;;;;
2021/08/31 07:54:30;;;;;;;;;;;;;;;;;;;;;
2021/08/31 07:56:56;;;;;;;13.40;11.38;;;;;;;38.38;30.74;99597.16;5034208;28;20057;-78
2021/08/31 07:59:37;;;;;;;14.10;11.63;;;;;;;38.87;29.94;99600.72;5016244;28;20504;-78
2021/08/31 08:05:23;;;;;;;13.75;12.20;;;;;;;38.75;28.53;99604.22;5015460;28;20410;-77
2021/08/31 08:07:53;;;;;;;13.98;11.45;;;;;;;39.47;27.47;99556.53;4987141;28;20048;-78
2021/08/31 08:10:19;;;;;;;15.77;10.25;;;;;;;40.79;27.11;99568.38;5030870;28;20080;-77
2021/08/31 08:12:52;;;;;;;12.38;11.10;;;;;;;42.08;25.04;99584.63;5033790;28;20041;-76
2021/08/31 08:15:29;;;;;;;13.43;10.95;;;;;;;42.40;24.97;99568.13;5011878;28;20041;-76
2021/08/31 08:17:56;;;;;;;14.93;12.13;;;;;;;43.28;23.33;99609.66;5040280;28;20037;-77
2021/08/31 08:20:31;;;;;;;13.13;11.88;;;;;;;42.22;23.59;99563.47;4999925;28;20115;-78
2021/08/31 08:22:57;;;;;;;13.80;11.73;;;;;;;42.37;22.97;99624.09;5015759;28;20044;-75
2021/08/31 08:25:34;;;;;;;14.23;11.68;;;;;;;41.92;22.78;99619.66;5016197;28;20049;-74
2021/08/31 08:28:02;;;;;;;14.73;13.05;;;;;;;41.47;23.15;99601.53;4999362;28;20095;-76
2021/08/31 08:30:31;;;;;;;16.20;12.90;;;;;;;40.20;23.24;99589.34;4994385;28;20203;-77
2021/08/31 08:33:05;;;;;;;12.50;11.18;;;;;;;40.97;23.73;99583.16;5013121;28;20057;-76
2021/08/31 08:35:31;;;;;;;12.90;11.27;;;;;;;42.24;22.88;99600.44;5012608;28;20191;-76
2021/08/31 08:37:58;;;;;;;16.02;12.13;;;;;;;41.95;22.71;99578.28;5012949;28;20521;-77
2021/08/31 08:40:53;;;;;;;15.77;11.68;;;;;;;42.58;22.47;99584.50;4998415;28;20425;-78
2021/08/31 08:43:22;;;;;;;15.68;12.77;;;;;;;42.19;21.69;99602.16;4979459;28;20113;-76
2021/08/31 08:45:54;;;;;;;13.65;12.25;;;;;;;40.03;23.14;99499.09;5029219;28;20061;-76
2021/08/31 08:48:40;;;;;;;16.17;13.45;;;;;;;39.42;24.12;99590.81;5015969;28;20038;-77
2021/08/31 08:51:15;;;;;;;12.70;11.40;;;;;;;39.26;25.22;99513.19;5000564;28;20108;-78
2021/08/31 08:54:02;;;;;;;18.50;11.63;;;;;;;40.39;24.57;99541.28;5032782;28;20037;-78
2021/08/31 08:56:34;;;;;;;12.60;11.32;;;;;;;41.93;23.32;99582.28;5015123;28;20096;-77
2021/08/31 08:59:05;;;;;;;13.07;11.85;;;;;;;42.33;21.39;99540.00;4996707;28;20034;-77
2021/08/31 09:01:47;;;;;;;13.90;11.10;;;;;;;41.33;22.33;99540.78;4995329;28;20045;-75
2021/08/31 09:04:41;;;;;;;13.77;12.27;;;;;;;39.76;23.38;99516.31;5021546;28;20095;-78
2021/08/31 09:07:25;;;;;;;13.90;11.50;;;;;;;40.84;23.21;99521.38;5034120;28;20187;-76
2021/08/31 09:10:36;;;;;;;13.27;11.83;;;;;;;41.81;21.68;99558.41;4984060;28;20029;-77
2021/08/31 09:13:10;;;;;;;14.43;12.25;;;;;;;41.80;20.63;99493.94;4997369;28;20064;-76
2021/08/31 09:15:41;;;;;;;14.73;11.52;;;;;;;42.29;21.79;99495.94;4999076;28;20045;-77
2021/08/31 09:18:25;;;;;;;12.95;11.50;;;;;;;43.34;20.22;99455.47;5014608;28;20049;-76
2021/08/31 09:21:11;;;;;;;;;;;;;;;;;;;;;
2021/08/31 09:23:56;;;;;;;15.13;12.75;;;;;;;42.73;20.51;99515.75;5014067;28;20092;-79
2021/08/31 09:26:43;;;;;;;15.43;11.00;;;;;;;42.08;21.04;99554.59;4998926;28;20048;-77
2021/08/31 09:29:20;;;;;;;13.52;12.23;;;;;;;41.82;21.25;99551.91;4997613;28;20148;-76
2021/08/31 09:32:03;;;;;;;15.40;13.10;;;;;;;40.12;21.99;99421.53;5011938;28;20510;-78
2021/08/31 09:38:22;;;;;;;18.92;16.55;;;;;;;41.70;20.90;99439.06;4984701;28;20048;-77
2021/08/31 09:41:09;;;;;;;17.15;13.95;;;;;;;42.32;21.39;99502.81;5014309;28;20223;-79
2021/08/31 09:43:53;;;;;;;15.07;10.48;;;;;;;42.30;20.47;99533.94;5015513;28;20141;-78
2021/08/31 09:47:10;;;;;;;14.63;11.65;;;;;;;42.07;20.12;99517.41;4999386;28;20543;-76
2021/08/31 09:49:41;;;;;;;18.52;11.27;;;;;;;41.83;20.64;99468.06;4984787;28;20650;-76
2021/08/31 09:52:12;;;;;;;12.80;11.45;;;;;;;41.30;21.31;99534.91;5014931;28;20052;-78
2021/08/31 09:54:46;;;;;;;16.13;11.05;;;;;;;40.32;21.59;99436.97;5020934;28;20113;-78
2021/08/31 09:57:39;;;;;;;16.30;11.55;;;;;;;41.83;20.50;99523.53;5033865;28;20057;-76
2021/08/31 10:00:12;;;;;;;14.95;10.75;;;;;;;42.52;20.14;99487.00;5003363;28;20061;-76
2021/08/31 10:02:43;;;;;;;14.00;11.23;;;;;;;42.77;20.10;99461.41;4997427;28;20509;-76
2021/08/31 10:05:09;;;;;;;13.05;11.18;;;;;;;43.13;19.84;99525.28;4985056;28;20053;-77
2021/08/31 10:07:52;;;;;;;16.60;12.05;;;;;;;42.38;19.61;99540.19;4998536;28;20476;-75
2021/08/31 10:10:18;;;;;;;15.23;11.18;;;;;;;41.10;20.94;99492.28;4998156;28;20037;-78
2021/08/31 10:12:53;;;;;;;12.50;10.13;;;;;;;41.09;21.44;99505.09;5017944;28;20045;-78
2021/08/31 10:15:28;;;;;;;14.80;10.35;;;;;;;40.15;21.97;99470.13;5007559;28;20046;-76
2021/08/31 10:17:57;;;;;;;11.57;10.30;;;;;;;40.51;21.31;99528.66;5005378;28;20050;-77
2021/08/31 10:20:29;;;;;;;13.20;11.10;;;;;;;39.93;22.38;99502.25;4985840;28;20473;-78
2021/08/31 10:23:04;;;;;;;11.50;10.25;;;;;;;40.27;23.02;99532.13;5018806;28;20125;-78
2021/08/31 10:25:33;;;;;;;17.13;10.35;;;;;;;39.33;22.88;99423.44;4995816;28;20053;-78
2021/08/31 10:28:24;;;;;;;14.43;10.98;;;;;;;38.89;23.34;99440.16;4980363;28;20037;-77
2021/08/31 10:30:53;;;;;;;14.10;10.40;;;;;;;38.72;23.68;99532.94;5021102;28;20128;-76
2021/08/31 10:33:38;;;;;;;14.35;10.98;;;;;;;38.40;23.58;99481.00;5015967;28;20041;-77
2021/08/31 10:36:13;;;;;;;11.48;10.27;;;;;;;37.70;24.73;99464.75;4985031;28;20538;-76
2021/08/31 10:38:52;;;;;;;15.48;10.45;;;;;;;38.47;23.52;99423.97;5034604;28;20059;-77
2021/08/31 10:41:45;;;;;;;14.77;10.27;;;;;;;37.27;24.63;99452.13;4998344;28;20046;-77
2021/08/31 10:44:41;;;;;;;16.45;10.55;;;;;;;35.87;26.16;99517.16;5015484;28;20044;-76
2021/08/31 10:47:34;;;;;;;11.88;10.15;;;;;;;34.56;28.09;99522.53;5034609;28;20061;-77
2021/08/31 10:50:00;;;;;;;14.40;11.00;;;;;;;33.50;29.36;99518.06;4994983;28;20413;-76
2021/08/31 10:52:34;;;;;;;14.50;11.00;;;;;;;32.83;30.12;99519.84;5000279;28;20052;-77
2021/08/31 10:55:27;;;;;;;18.20;10.52;;;;;;;32.56;30.99;99520.91;5035161;28;20080;-78
2021/08/31 10:58:13;;;;;;;14.45;10.90;;;;;;;31.70;32.15;99467.00;4997827;28;20045;-76
2021/08/31 11:00:53;;;;;;;17.67;10.43;;;;;;;31.91;32.34;99522.25;5016891;28;20033;-76
2021/08/31 11:03:33;;;;;;;18.95;10.98;;;;;;;31.10;32.80;99476.59;5000539;28;20486;-76
2021/08/31 11:06:15;;;;;;;13.70;10.80;;;;;;;30.67;35.11;99522.03;5000797;28;20088;-77
2021/08/31 11:09:11;;;;;;;13.27;10.77;;;;;;;30.25;35.75;99507.22;4999598;28;20068;-77
2021/08/31 11:11:59;;;;;;;11.88;10.57;;;;;;;29.59;36.83;99490.19;5011999;28;20664;-76
2021/08/31 11:14:41;;;;;;;;;;;;;;;29.38;37.25;99503.75;4965133;28;20061;-76
2021/08/31 11:17:07;;;;;;;17.13;11.45;;;;;;;29.45;37.79;99516.47;4997249;28;19921;-78
2021/08/31 11:19:36;;;;;;;15.60;10.65;;;;;;;29.22;37.86;99497.13;4996748;28;20046;-79
2021/08/31 11:22:53;;;;;;;13.70;10.43;;;;;;;28.81;37.80;99473.13;5014317;28;20076;-77
2021/08/31 11:25:28;;;;;;;16.65;9.60;;;;;;;28.64;38.10;99477.34;4967226;28;20104;-77
2021/08/31 11:27:59;;;;;;;17.27;9.07;;;;;;;27.78;38.71;99346.75;5003011;28;20049;-78
2021/08/31 11:30:26;;;;;;;17.15;10.35;;;;;;;28.07;38.11;99394.13;5048141;28;20095;-77
2021/08/31 11:33:40;;;;;;;12.48;8.65;;;;;;;28.31;38.25;99443.75;4999184;28;20041;-77
2021/08/31 11:36:31;;;;;;;13.93;8.73;;;;;;;28.33;38.84;99489.94;4926947;28;20507;-78
2021/08/31 11:39:09;;;;;;;10.25;7.95;;;;;;;27.72;38.95;99401.59;4995926;28;20049;-78
2021/08/31 11:41:43;;;;;;;16.85;8.25;;;;;;;27.89;38.44;99436.66;4998168;28;20069;-77
2021/08/31 11:44:15;;;;;;;11.73;7.30;;;;;;;28.13;38.52;99497.88;5031067;28;20041;-77
2021/08/31 11:46:51;;;;;;;8.95;7.15;;;;;;;28.09;38.27;99504.44;4999832;28;20128;-78
2021/08/31 11:49:32;;;;;;;11.80;8.88;;;;;;;28.16;38.06;99489.56;5000077;28;20103;-77
2021/08/31 11:52:18;;;;;;;10.65;7.20;;;;;;;27.68;37.92;99416.19;5033209;28;20045;-77
2021/08/31 11:54:55;;;;;;;10.93;7.38;;;;;;;27.70;37.51;99421.38;5015144;28;20060;-78
2021/08/31 11:57:31;;;;;;;9.88;7.35;;;;;;;27.32;37.74;99368.44;4982298;28;20092;-76
2021/08/31 12:00:14;;;;;;;9.32;7.70;;;;;;;27.53;38.01;99437.06;5003033;28;20133;-77